sensor_id;sensor_type;location;lat;lon;timestamp;P1;durP1;ratioP1;P2;durP2;ratioP2
53646;SDS011;39550;52.230;5.194;2023-01-08T00:01:38;7.60;;;4.70;;
53646;SDS011;39550;52.230;5.194;2023-01-08T00:04:03;8.38;;;4.50;;
53646;SDS011;39550;52.230;5.194;2023-01-08T00:06:29;6.15;;;3.97;;
53646;SDS011;39550;52.230;5.194;2023-01-08T00:08:54;6.70;;;3.85;;
53646;SDS011;39550;52.230;5.194;2023-01-08T00:11:19;5.75;;;3.80;;
53646;SDS011;39550;52.230;5.194;2023-01-08T00:13:45;7.50;;;4.55;;
53646;SDS011;39550;52.230;5.194;2023-01-08T00:16:11;7.60;;;3.97;;
53646;SDS011;39550;52.230;5.194;2023-01-08T00:18:38;7.22;;;3.80;;
53646;SDS011;39550;52.230;5.194;2023-01-08T00:21:04;6.72;;;3.92;;
53646;SDS011;39550;52.230;5.194;2023-01-08T00:23:30;6.60;;;3.42;;
53646;SDS011;39550;52.230;5.194;2023-01-08T00:25:55;6.93;;;3.50;;
53646;SDS011;39550;52.230;5.194;2023-01-08T00:28:20;7.35;;;3.50;;
53646;SDS011;39550;52.230;5.194;2023-01-08T00:30:46;8.27;;;3.78;;
53646;SDS011;39550;52.230;5.194;2023-01-08T00:33:12;7.22;;;3.60;;
53646;SDS011;39550;52.230;5.194;2023-01-08T00:35:38;6.03;;;3.35;;
53646;SDS011;39550;52.230;5.194;2023-01-08T00:38:03;4.82;;;3.00;;
53646;SDS011;39550;52.230;5.194;2023-01-08T00:40:29;6.40;;;3.28;;
53646;SDS011;39550;52.230;5.194;2023-01-08T00:42:54;5.95;;;3.08;;
53646;SDS011;39550;52.230;5.194;2023-01-08T00:45:19;5.90;;;3.35;;
53646;SDS011;39550;52.230;5.194;2023-01-08T00:47:45;5.07;;;3.17;;
53646;SDS011;39550;52.230;5.194;2023-01-08T00:50:10;7.80;;;3.65;;
53646;SDS011;39550;52.230;5.194;2023-01-08T00:52:36;9.90;;;3.75;;
53646;SDS011;39550;52.230;5.194;2023-01-08T00:55:01;7.72;;;3.00;;
53646;SDS011;39550;52.230;5.194;2023-01-08T00:57:31;5.50;;;3.10;;
53646;SDS011;39550;52.230;5.194;2023-01-08T01:00:00;5.05;;;2.85;;
53646;SDS011;39550;52.230;5.194;2023-01-08T01:02:25;7.82;;;3.63;;
53646;SDS011;39550;52.230;5.194;2023-01-08T01:04:52;4.75;;;3.10;;
53646;SDS011;39550;52.230;5.194;2023-01-08T01:07:17;5.22;;;3.00;;
53646;SDS011;39550;52.230;5.194;2023-01-08T01:09:43;6.00;;;3.35;;
53646;SDS011;39550;52.230;5.194;2023-01-08T01:12:08;5.22;;;3.40;;
53646;SDS011;39550;52.230;5.194;2023-01-08T01:14:33;6.82;;;3.45;;
53646;SDS011;39550;52.230;5.194;2023-01-08T01:17:01;5.05;;;2.90;;
53646;SDS011;39550;52.230;5.194;2023-01-08T01:19:26;6.07;;;2.92;;
53646;SDS011;39550;52.230;5.194;2023-01-08T01:21:51;7.55;;;3.20;;
53646;SDS011;39550;52.230;5.194;2023-01-08T01:24:17;5.95;;;2.95;;
53646;SDS011;39550;52.230;5.194;2023-01-08T01:26:42;4.63;;;2.80;;
53646;SDS011;39550;52.230;5.194;2023-01-08T01:29:07;6.07;;;2.83;;
53646;SDS011;39550;52.230;5.194;2023-01-08T01:31:33;4.80;;;2.92;;
53646;SDS011;39550;52.230;5.194;2023-01-08T01:33:58;4.50;;;2.80;;
53646;SDS011;39550;52.230;5.194;2023-01-08T01:36:25;6.72;;;3.30;;
53646;SDS011;39550;52.230;5.194;2023-01-08T01:38:51;6.78;;;3.13;;
53646;SDS011;39550;52.230;5.194;2023-01-08T01:41:26;6.75;;;3.40;;
53646;SDS011;39550;52.230;5.194;2023-01-08T01:43:54;6.72;;;3.30;;
53646;SDS011;39550;52.230;5.194;2023-01-08T01:46:34;5.25;;;2.75;;
53646;SDS011;39550;52.230;5.194;2023-01-08T01:49:14;6.22;;;3.10;;
53646;SDS011;39550;52.230;5.194;2023-01-08T01:51:49;4.82;;;3.10;;
53646;SDS011;39550;52.230;5.194;2023-01-08T01:54:17;5.85;;;3.20;;
53646;SDS011;39550;52.230;5.194;2023-01-08T01:56:44;5.28;;;3.00;;
53646;SDS011;39550;52.230;5.194;2023-01-08T01:59:10;6.78;;;3.00;;
53646;SDS011;39550;52.230;5.194;2023-01-08T02:01:36;5.78;;;3.28;;
53646;SDS011;39550;52.230;5.194;2023-01-08T02:04:04;5.40;;;3.03;;
53646;SDS011;39550;52.230;5.194;2023-01-08T02:14:37;5.00;;;2.80;;
53646;SDS011;39550;52.230;5.194;2023-01-08T02:17:13;6.63;;;3.20;;
53646;SDS011;39550;52.230;5.194;2023-01-08T02:19:43;5.03;;;3.00;;
53646;SDS011;39550;52.230;5.194;2023-01-08T02:27:34;5.07;;;2.70;;
53646;SDS011;39550;52.230;5.194;2023-01-08T02:30:02;5.75;;;2.67;;
53646;SDS011;39550;52.230;5.194;2023-01-08T02:32:32;5.68;;;3.42;;
53646;SDS011;39550;52.230;5.194;2023-01-08T02:35:02;5.28;;;2.78;;
53646;SDS011;39550;52.230;5.194;2023-01-08T02:37:28;5.25;;;3.10;;
53646;SDS011;39550;52.230;5.194;2023-01-08T02:50:53;5.50;;;2.58;;
53646;SDS011;39550;52.230;5.194;2023-01-08T02:53:26;4.43;;;2.63;;
53646;SDS011;39550;52.230;5.194;2023-01-08T02:55:55;4.25;;;2.70;;
53646;SDS011;39550;52.230;5.194;2023-01-08T02:58:24;5.63;;;2.80;;
53646;SDS011;39550;52.230;5.194;2023-01-08T03:00:52;7.55;;;2.80;;
53646;SDS011;39550;52.230;5.194;2023-01-08T03:03:20;5.13;;;2.85;;
53646;SDS011;39550;52.230;5.194;2023-01-08T03:05:49;4.82;;;2.42;;
53646;SDS011;39550;52.230;5.194;2023-01-08T03:08:36;4.63;;;2.30;;
53646;SDS011;39550;52.230;5.194;2023-01-08T03:11:04;4.70;;;2.30;;
53646;SDS011;39550;52.230;5.194;2023-01-08T03:13:36;7.32;;;2.97;;
53646;SDS011;39550;52.230;5.194;2023-01-08T03:16:04;5.05;;;2.60;;
53646;SDS011;39550;52.230;5.194;2023-01-08T03:18:35;4.72;;;2.30;;
53646;SDS011;39550;52.230;5.194;2023-01-08T03:21:10;6.55;;;2.78;;
53646;SDS011;39550;52.230;5.194;2023-01-08T03:23:37;5.38;;;2.60;;
53646;SDS011;39550;52.230;5.194;2023-01-08T03:26:05;5.35;;;2.40;;
53646;SDS011;39550;52.230;5.194;2023-01-08T03:28:36;6.40;;;2.40;;
53646;SDS011;39550;52.230;5.194;2023-01-08T03:31:05;5.85;;;3.08;;
53646;SDS011;39550;52.230;5.194;2023-01-08T03:33:32;5.35;;;2.83;;
53646;SDS011;39550;52.230;5.194;2023-01-08T03:36:00;5.20;;;2.67;;
53646;SDS011;39550;52.230;5.194;2023-01-08T03:38:33;6.25;;;2.65;;
53646;SDS011;39550;52.230;5.194;2023-01-08T03:41:04;5.55;;;2.80;;
53646;SDS011;39550;52.230;5.194;2023-01-08T03:46:00;4.45;;;2.40;;
53646;SDS011;39550;52.230;5.194;2023-01-08T03:48:29;5.55;;;2.63;;
53646;SDS011;39550;52.230;5.194;2023-01-08T03:50:58;5.53;;;2.47;;
53646;SDS011;39550;52.230;5.194;2023-01-08T03:53:23;6.18;;;2.83;;
53646;SDS011;39550;52.230;5.194;2023-01-08T03:55:48;3.88;;;2.28;;
53646;SDS011;39550;52.230;5.194;2023-01-08T03:58:14;4.53;;;2.60;;
53646;SDS011;39550;52.230;5.194;2023-01-08T04:00:39;4.85;;;2.40;;
53646;SDS011;39550;52.230;5.194;2023-01-08T04:03:04;4.55;;;2.55;;
53646;SDS011;39550;52.230;5.194;2023-01-08T04:05:30;5.70;;;2.38;;
53646;SDS011;39550;52.230;5.194;2023-01-08T04:07:55;5.20;;;2.60;;
53646;SDS011;39550;52.230;5.194;2023-01-08T04:10:22;4.43;;;2.63;;
53646;SDS011;39550;52.230;5.194;2023-01-08T04:12:48;5.20;;;3.00;;
53646;SDS011;39550;52.230;5.194;2023-01-08T04:15:13;3.85;;;2.10;;
53646;SDS011;39550;52.230;5.194;2023-01-08T04:17:38;4.47;;;2.38;;
53646;SDS011;39550;52.230;5.194;2023-01-08T04:20:04;8.05;;;2.92;;
53646;SDS011;39550;52.230;5.194;2023-01-08T04:22:30;6.30;;;2.63;;
53646;SDS011;39550;52.230;5.194;2023-01-08T04:24:55;5.88;;;2.42;;
53646;SDS011;39550;52.230;5.194;2023-01-08T04:27:20;5.50;;;2.40;;
53646;SDS011;39550;52.230;5.194;2023-01-08T04:29:45;4.90;;;2.40;;
53646;SDS011;39550;52.230;5.194;2023-01-08T04:32:11;8.02;;;2.70;;
53646;SDS011;39550;52.230;5.194;2023-01-08T04:34:36;4.15;;;2.50;;
53646;SDS011;39550;52.230;5.194;2023-01-08T04:37:01;4.97;;;2.65;;
53646;SDS011;39550;52.230;5.194;2023-01-08T04:39:27;5.60;;;2.65;;
53646;SDS011;39550;52.230;5.194;2023-01-08T04:41:53;4.32;;;2.35;;
53646;SDS011;39550;52.230;5.194;2023-01-08T04:44:18;4.63;;;2.58;;
53646;SDS011;39550;52.230;5.194;2023-01-08T04:46:43;4.97;;;2.80;;
53646;SDS011;39550;52.230;5.194;2023-01-08T04:49:10;5.82;;;2.70;;
53646;SDS011;39550;52.230;5.194;2023-01-08T04:51:35;6.15;;;2.83;;
53646;SDS011;39550;52.230;5.194;2023-01-08T04:54:01;4.72;;;2.80;;
53646;SDS011;39550;52.230;5.194;2023-01-08T04:56:26;4.45;;;2.40;;
53646;SDS011;39550;52.230;5.194;2023-01-08T04:58:51;6.05;;;2.90;;
53646;SDS011;39550;52.230;5.194;2023-01-08T05:01:20;5.78;;;2.80;;
53646;SDS011;39550;52.230;5.194;2023-01-08T05:03:51;4.30;;;2.40;;
53646;SDS011;39550;52.230;5.194;2023-01-08T05:08:42;6.03;;;2.73;;
53646;SDS011;39550;52.230;5.194;2023-01-08T05:11:08;5.80;;;2.90;;
53646;SDS011;39550;52.230;5.194;2023-01-08T05:13:33;6.93;;;3.17;;
53646;SDS011;39550;52.230;5.194;2023-01-08T05:15:58;5.95;;;2.63;;
53646;SDS011;39550;52.230;5.194;2023-01-08T05:18:25;4.22;;;2.60;;
53646;SDS011;39550;52.230;5.194;2023-01-08T05:20:51;5.88;;;2.70;;
53646;SDS011;39550;52.230;5.194;2023-01-08T05:23:16;5.75;;;2.72;;
53646;SDS011;39550;52.230;5.194;2023-01-08T05:25:41;3.90;;;2.40;;
53646;SDS011;39550;52.230;5.194;2023-01-08T05:28:06;5.40;;;2.92;;
53646;SDS011;39550;52.230;5.194;2023-01-08T05:30:32;6.35;;;2.78;;
53646;SDS011;39550;52.230;5.194;2023-01-08T05:33:04;4.70;;;2.70;;
53646;SDS011;39550;52.230;5.194;2023-01-08T05:35:29;5.03;;;2.50;;
53646;SDS011;39550;52.230;5.194;2023-01-08T05:37:55;4.15;;;2.50;;
53646;SDS011;39550;52.230;5.194;2023-01-08T05:40:23;4.80;;;2.45;;
53646;SDS011;39550;52.230;5.194;2023-01-08T05:42:48;3.75;;;2.45;;
53646;SDS011;39550;52.230;5.194;2023-01-08T05:45:13;4.85;;;2.38;;
53646;SDS011;39550;52.230;5.194;2023-01-08T05:47:40;5.45;;;2.90;;
53646;SDS011;39550;52.230;5.194;2023-01-08T05:50:06;5.45;;;2.72;;
53646;SDS011;39550;52.230;5.194;2023-01-08T05:52:31;4.30;;;2.47;;
53646;SDS011;39550;52.230;5.194;2023-01-08T05:54:57;4.22;;;2.35;;
53646;SDS011;39550;52.230;5.194;2023-01-08T05:57:24;5.65;;;2.50;;
53646;SDS011;39550;52.230;5.194;2023-01-08T05:59:49;4.70;;;2.33;;
53646;SDS011;39550;52.230;5.194;2023-01-08T06:02:15;6.68;;;2.88;;
53646;SDS011;39550;52.230;5.194;2023-01-08T06:04:40;4.93;;;2.60;;
53646;SDS011;39550;52.230;5.194;2023-01-08T06:07:05;5.45;;;2.45;;
53646;SDS011;39550;52.230;5.194;2023-01-08T06:09:31;4.38;;;2.60;;
53646;SDS011;39550;52.230;5.194;2023-01-08T06:11:56;5.72;;;2.53;;
53646;SDS011;39550;52.230;5.194;2023-01-08T06:14:22;4.00;;;2.25;;
53646;SDS011;39550;52.230;5.194;2023-01-08T06:16:47;3.78;;;2.13;;
53646;SDS011;39550;52.230;5.194;2023-01-08T06:19:12;5.03;;;2.35;;
53646;SDS011;39550;52.230;5.194;2023-01-08T06:21:38;4.90;;;2.50;;
53646;SDS011;39550;52.230;5.194;2023-01-08T06:24:03;5.00;;;2.58;;
53646;SDS011;39550;52.230;5.194;2023-01-08T06:26:29;6.45;;;2.25;;
53646;SDS011;39550;52.230;5.194;2023-01-08T06:28:54;4.32;;;2.40;;
53646;SDS011;39550;52.230;5.194;2023-01-08T06:31:20;5.05;;;2.63;;
53646;SDS011;39550;52.230;5.194;2023-01-08T06:33:45;4.50;;;2.33;;
53646;SDS011;39550;52.230;5.194;2023-01-08T06:36:10;4.57;;;2.45;;
53646;SDS011;39550;52.230;5.194;2023-01-08T06:38:36;6.22;;;3.00;;
53646;SDS011;39550;52.230;5.194;2023-01-08T06:41:02;4.43;;;2.47;;
53646;SDS011;39550;52.230;5.194;2023-01-08T06:43:34;4.18;;;2.30;;
53646;SDS011;39550;52.230;5.194;2023-01-08T06:46:00;5.43;;;2.50;;
53646;SDS011;39550;52.230;5.194;2023-01-08T06:48:33;5.35;;;2.80;;
53646;SDS011;39550;52.230;5.194;2023-01-08T06:51:19;5.68;;;2.33;;
53646;SDS011;39550;52.230;5.194;2023-01-08T06:54:07;6.68;;;2.60;;
53646;SDS011;39550;52.230;5.194;2023-01-08T06:57:19;5.20;;;2.40;;
53646;SDS011;39550;52.230;5.194;2023-01-08T07:00:06;4.28;;;2.53;;
53646;SDS011;39550;52.230;5.194;2023-01-08T07:02:38;4.00;;;2.40;;
53646;SDS011;39550;52.230;5.194;2023-01-08T07:05:30;4.55;;;2.28;;
53646;SDS011;39550;52.230;5.194;2023-01-08T07:08:01;4.93;;;2.17;;
53646;SDS011;39550;52.230;5.194;2023-01-08T07:10:26;5.10;;;2.45;;
53646;SDS011;39550;52.230;5.194;2023-01-08T07:12:52;5.10;;;2.60;;
53646;SDS011;39550;52.230;5.194;2023-01-08T07:15:17;5.30;;;2.63;;
53646;SDS011;39550;52.230;5.194;2023-01-08T07:17:42;4.85;;;2.40;;
53646;SDS011;39550;52.230;5.194;2023-01-08T07:20:08;5.10;;;2.35;;
53646;SDS011;39550;52.230;5.194;2023-01-08T07:22:33;4.40;;;2.30;;
53646;SDS011;39550;52.230;5.194;2023-01-08T07:24:59;5.00;;;2.50;;
53646;SDS011;39550;52.230;5.194;2023-01-08T07:27:24;5.70;;;2.50;;
53646;SDS011;39550;52.230;5.194;2023-01-08T07:29:49;5.97;;;2.47;;
53646;SDS011;39550;52.230;5.194;2023-01-08T07:32:14;6.65;;;2.70;;
53646;SDS011;39550;52.230;5.194;2023-01-08T07:34:40;4.78;;;2.40;;
53646;SDS011;39550;52.230;5.194;2023-01-08T07:37:05;5.18;;;2.40;;
53646;SDS011;39550;52.230;5.194;2023-01-08T07:39:31;4.30;;;2.13;;
53646;SDS011;39550;52.230;5.194;2023-01-08T07:41:56;4.82;;;2.47;;
53646;SDS011;39550;52.230;5.194;2023-01-08T07:44:22;6.43;;;2.58;;
53646;SDS011;39550;52.230;5.194;2023-01-08T07:46:47;5.57;;;2.63;;
53646;SDS011;39550;52.230;5.194;2023-01-08T07:49:12;6.10;;;2.35;;
53646;SDS011;39550;52.230;5.194;2023-01-08T07:51:38;4.90;;;2.28;;
53646;SDS011;39550;52.230;5.194;2023-01-08T07:54:03;4.28;;;2.67;;
53646;SDS011;39550;52.230;5.194;2023-01-08T07:56:29;5.40;;;2.20;;
53646;SDS011;39550;52.230;5.194;2023-01-08T07:58:54;4.35;;;2.45;;
53646;SDS011;39550;52.230;5.194;2023-01-08T08:01:19;4.80;;;2.40;;
53646;SDS011;39550;52.230;5.194;2023-01-08T08:03:45;4.90;;;2.78;;
53646;SDS011;39550;52.230;5.194;2023-01-08T08:06:10;4.28;;;2.55;;
53646;SDS011;39550;52.230;5.194;2023-01-08T08:08:35;7.60;;;2.70;;
53646;SDS011;39550;52.230;5.194;2023-01-08T08:11:01;6.03;;;2.95;;
53646;SDS011;39550;52.230;5.194;2023-01-08T08:13:27;7.55;;;2.65;;
53646;SDS011;39550;52.230;5.194;2023-01-08T08:15:52;4.43;;;2.28;;
53646;SDS011;39550;52.230;5.194;2023-01-08T08:18:17;5.68;;;2.50;;
53646;SDS011;39550;52.230;5.194;2023-01-08T08:20:43;5.40;;;2.60;;
53646;SDS011;39550;52.230;5.194;2023-01-08T08:23:12;5.00;;;2.38;;
53646;SDS011;39550;52.230;5.194;2023-01-08T08:25:39;4.57;;;2.65;;
53646;SDS011;39550;52.230;5.194;2023-01-08T08:28:06;5.00;;;2.38;;
53646;SDS011;39550;52.230;5.194;2023-01-08T08:30:32;4.72;;;2.95;;
53646;SDS011;39550;52.230;5.194;2023-01-08T08:33:00;5.45;;;2.55;;
53646;SDS011;39550;52.230;5.194;2023-01-08T08:35:27;4.82;;;2.40;;
53646;SDS011;39550;52.230;5.194;2023-01-08T08:37:54;6.28;;;2.72;;
53646;SDS011;39550;52.230;5.194;2023-01-08T08:40:22;5.10;;;2.72;;
53646;SDS011;39550;52.230;5.194;2023-01-08T08:42:48;4.28;;;2.42;;
53646;SDS011;39550;52.230;5.194;2023-01-08T08:45:13;7.00;;;2.75;;
53646;SDS011;39550;52.230;5.194;2023-01-08T08:47:38;6.97;;;2.55;;
53646;SDS011;39550;52.230;5.194;2023-01-08T08:50:04;4.85;;;2.30;;
53646;SDS011;39550;52.230;5.194;2023-01-08T08:52:31;5.72;;;2.53;;
53646;SDS011;39550;52.230;5.194;2023-01-08T08:54:57;9.45;;;2.85;;
53646;SDS011;39550;52.230;5.194;2023-01-08T08:57:23;4.60;;;2.50;;
53646;SDS011;39550;52.230;5.194;2023-01-08T08:59:49;7.53;;;2.60;;
53646;SDS011;39550;52.230;5.194;2023-01-08T09:02:14;7.43;;;2.78;;
53646;SDS011;39550;52.230;5.194;2023-01-08T09:04:40;10.75;;;3.45;;
53646;SDS011;39550;52.230;5.194;2023-01-08T09:07:05;6.38;;;2.78;;
53646;SDS011;39550;52.230;5.194;2023-01-08T09:09:30;6.55;;;2.70;;
53646;SDS011;39550;52.230;5.194;2023-01-08T09:11:56;6.95;;;2.67;;
53646;SDS011;39550;52.230;5.194;2023-01-08T09:14:21;5.53;;;2.42;;
53646;SDS011;39550;52.230;5.194;2023-01-08T09:16:47;8.35;;;3.00;;
53646;SDS011;39550;52.230;5.194;2023-01-08T09:19:12;5.72;;;3.03;;
53646;SDS011;39550;52.230;5.194;2023-01-08T09:21:38;5.90;;;2.05;;
53646;SDS011;39550;52.230;5.194;2023-01-08T09:24:03;7.68;;;2.60;;
53646;SDS011;39550;52.230;5.194;2023-01-08T09:26:29;6.90;;;2.65;;
53646;SDS011;39550;52.230;5.194;2023-01-08T09:28:55;5.85;;;2.55;;
53646;SDS011;39550;52.230;5.194;2023-01-08T09:31:22;6.80;;;2.97;;
53646;SDS011;39550;52.230;5.194;2023-01-08T09:33:47;4.72;;;2.50;;
53646;SDS011;39550;52.230;5.194;2023-01-08T09:36:13;6.03;;;2.67;;
53646;SDS011;39550;52.230;5.194;2023-01-08T09:38:38;6.80;;;2.70;;
53646;SDS011;39550;52.230;5.194;2023-01-08T09:41:04;7.55;;;2.95;;
53646;SDS011;39550;52.230;5.194;2023-01-08T09:43:54;6.63;;;2.53;;
53646;SDS011;39550;52.230;5.194;2023-01-08T09:46:22;6.47;;;2.90;;
53646;SDS011;39550;52.230;5.194;2023-01-08T09:48:50;7.43;;;2.55;;
53646;SDS011;39550;52.230;5.194;2023-01-08T09:51:17;9.10;;;2.90;;
53646;SDS011;39550;52.230;5.194;2023-01-08T09:53:44;7.07;;;2.97;;
53646;SDS011;39550;52.230;5.194;2023-01-08T09:56:15;7.60;;;2.95;;
53646;SDS011;39550;52.230;5.194;2023-01-08T09:58:49;7.32;;;2.75;;
53646;SDS011;39550;52.230;5.194;2023-01-08T10:01:19;9.70;;;2.75;;
53646;SDS011;39550;52.230;5.194;2023-01-08T10:03:50;9.93;;;3.20;;
53646;SDS011;39550;52.230;5.194;2023-01-08T10:06:21;5.55;;;2.78;;
53646;SDS011;39550;52.230;5.194;2023-01-08T10:08:48;6.85;;;2.63;;
53646;SDS011;39550;52.230;5.194;2023-01-08T10:11:15;8.38;;;3.00;;
53646;SDS011;39550;52.230;5.194;2023-01-08T10:13:42;7.57;;;2.80;;
53646;SDS011;39550;52.230;5.194;2023-01-08T10:16:17;7.28;;;2.60;;
53646;SDS011;39550;52.230;5.194;2023-01-08T10:18:48;7.70;;;2.72;;
53646;SDS011;39550;52.230;5.194;2023-01-08T10:21:14;6.85;;;2.90;;
53646;SDS011;39550;52.230;5.194;2023-01-08T10:23:51;7.95;;;2.92;;
53646;SDS011;39550;52.230;5.194;2023-01-08T10:26:28;5.40;;;2.58;;
53646;SDS011;39550;52.230;5.194;2023-01-08T10:29:08;9.82;;;3.38;;
53646;SDS011;39550;52.230;5.194;2023-01-08T10:37:12;7.47;;;2.97;;
53646;SDS011;39550;52.230;5.194;2023-01-08T10:39:49;11.55;;;3.20;;
53646;SDS011;39550;52.230;5.194;2023-01-08T10:42:17;8.48;;;3.20;;
53646;SDS011;39550;52.230;5.194;2023-01-08T10:44:46;10.15;;;3.20;;
53646;SDS011;39550;52.230;5.194;2023-01-08T10:47:32;8.30;;;2.83;;
53646;SDS011;39550;52.230;5.194;2023-01-08T10:50:01;7.40;;;3.05;;
53646;SDS011;39550;52.230;5.194;2023-01-08T10:52:30;7.70;;;2.90;;
53646;SDS011;39550;52.230;5.194;2023-01-08T10:55:09;8.05;;;2.78;;
53646;SDS011;39550;52.230;5.194;2023-01-08T11:00:23;5.57;;;2.85;;
53646;SDS011;39550;52.230;5.194;2023-01-08T11:03:00;6.00;;;2.63;;
53646;SDS011;39550;52.230;5.194;2023-01-08T11:05:31;7.18;;;2.83;;
53646;SDS011;39550;52.230;5.194;2023-01-08T11:07:59;7.65;;;2.90;;
53646;SDS011;39550;52.230;5.194;2023-01-08T11:10:26;6.88;;;2.88;;
53646;SDS011;39550;52.230;5.194;2023-01-08T11:13:02;8.15;;;3.03;;
53646;SDS011;39550;52.230;5.194;2023-01-08T11:15:40;7.82;;;2.90;;
53646;SDS011;39550;52.230;5.194;2023-01-08T11:20:34;7.22;;;2.75;;
53646;SDS011;39550;52.230;5.194;2023-01-08T11:59:29;7.82;;;2.70;;
53646;SDS011;39550;52.230;5.194;2023-01-08T12:05:29;6.05;;;2.70;;
53646;SDS011;39550;52.230;5.194;2023-01-08T12:32:15;11.10;;;3.40;;
53646;SDS011;39550;52.230;5.194;2023-01-08T12:37:49;8.05;;;3.30;;
53646;SDS011;39550;52.230;5.194;2023-01-08T12:40:27;9.07;;;4.32;;
53646;SDS011;39550;52.230;5.194;2023-01-08T12:43:10;9.40;;;3.13;;
53646;SDS011;39550;52.230;5.194;2023-01-08T12:45:43;9.15;;;3.10;;
53646;SDS011;39550;52.230;5.194;2023-01-08T12:48:14;10.20;;;3.40;;
53646;SDS011;39550;52.230;5.194;2023-01-08T12:53:30;7.75;;;3.45;;
53646;SDS011;39550;52.230;5.194;2023-01-08T13:01:34;7.10;;;3.28;;
53646;SDS011;39550;52.230;5.194;2023-01-08T13:04:02;9.30;;;3.25;;
53646;SDS011;39550;52.230;5.194;2023-01-08T13:06:28;7.90;;;3.35;;
53646;SDS011;39550;52.230;5.194;2023-01-08T13:08:55;14.75;;;4.38;;
53646;SDS011;39550;52.230;5.194;2023-01-08T13:11:26;13.85;;;4.10;;
53646;SDS011;39550;52.230;5.194;2023-01-08T13:14:09;21.50;;;4.72;;
53646;SDS011;39550;52.230;5.194;2023-01-08T13:19:05;19.40;;;4.57;;
53646;SDS011;39550;52.230;5.194;2023-01-08T13:21:55;11.75;;;4.28;;
53646;SDS011;39550;52.230;5.194;2023-01-08T13:26:53;11.68;;;4.15;;
53646;SDS011;39550;52.230;5.194;2023-01-08T13:32:03;13.80;;;4.93;;
53646;SDS011;39550;52.230;5.194;2023-01-08T13:34:36;12.23;;;4.07;;
53646;SDS011;39550;52.230;5.194;2023-01-08T13:37:04;9.07;;;3.65;;
53646;SDS011;39550;52.230;5.194;2023-01-08T13:42:19;11.80;;;3.78;;
53646;SDS011;39550;52.230;5.194;2023-01-08T13:45:10;8.68;;;3.85;;
53646;SDS011;39550;52.230;5.194;2023-01-08T13:52:45;82.30;;;13.77;;
53646;SDS011;39550;52.230;5.194;2023-01-08T13:57:51;117.65;;;14.88;;
53646;SDS011;39550;52.230;5.194;2023-01-08T14:00:23;100.85;;;14.40;;
53646;SDS011;39550;52.230;5.194;2023-01-08T14:02:53;87.85;;;12.68;;
53646;SDS011;39550;52.230;5.194;2023-01-08T14:07:52;73.82;;;12.30;;
53646;SDS011;39550;52.230;5.194;2023-01-08T14:10:18;48.95;;;9.45;;
53646;SDS011;39550;52.230;5.194;2023-01-08T14:12:44;57.92;;;10.40;;
53646;SDS011;39550;52.230;5.194;2023-01-08T14:15:26;44.70;;;10.77;;
53646;SDS011;39550;52.230;5.194;2023-01-08T14:17:53;37.63;;;8.23;;
53646;SDS011;39550;52.230;5.194;2023-01-08T14:20:33;37.90;;;8.15;;
53646;SDS011;39550;52.230;5.194;2023-01-08T14:23:01;42.17;;;8.43;;
53646;SDS011;39550;52.230;5.194;2023-01-08T14:25:32;47.45;;;8.65;;
53646;SDS011;39550;52.230;5.194;2023-01-08T14:27:59;42.08;;;9.13;;
53646;SDS011;39550;52.230;5.194;2023-01-08T14:30:27;28.63;;;8.57;;
53646;SDS011;39550;52.230;5.194;2023-01-08T14:32:54;32.50;;;7.63;;
53646;SDS011;39550;52.230;5.194;2023-01-08T14:35:22;28.15;;;6.90;;
53646;SDS011;39550;52.230;5.194;2023-01-08T14:37:53;32.05;;;6.70;;
53646;SDS011;39550;52.230;5.194;2023-01-08T14:40:29;29.10;;;6.43;;
53646;SDS011;39550;52.230;5.194;2023-01-08T14:43:05;28.58;;;6.75;;
53646;SDS011;39550;52.230;5.194;2023-01-08T14:45:33;28.33;;;6.07;;
53646;SDS011;39550;52.230;5.194;2023-01-08T14:48:07;18.10;;;5.78;;
53646;SDS011;39550;52.230;5.194;2023-01-08T14:50:36;22.05;;;6.43;;
53646;SDS011;39550;52.230;5.194;2023-01-08T14:53:24;22.30;;;5.72;;
53646;SDS011;39550;52.230;5.194;2023-01-08T14:55:54;14.90;;;5.63;;
53646;SDS011;39550;52.230;5.194;2023-01-08T14:58:22;17.77;;;5.05;;
53646;SDS011;39550;52.230;5.194;2023-01-08T15:00:50;19.02;;;5.03;;
53646;SDS011;39550;52.230;5.194;2023-01-08T15:06:00;15.98;;;5.00;;
53646;SDS011;39550;52.230;5.194;2023-01-08T15:08:31;21.50;;;5.55;;
53646;SDS011;39550;52.230;5.194;2023-01-08T15:11:26;14.85;;;4.78;;
53646;SDS011;39550;52.230;5.194;2023-01-08T15:13:54;18.90;;;4.70;;
53646;SDS011;39550;52.230;5.194;2023-01-08T15:19:01;10.30;;;4.38;;
53646;SDS011;39550;52.230;5.194;2023-01-08T15:21:47;12.88;;;4.38;;
53646;SDS011;39550;52.230;5.194;2023-01-08T15:26:50;13.07;;;4.15;;
53646;SDS011;39550;52.230;5.194;2023-01-08T15:29:23;10.40;;;3.70;;
53646;SDS011;39550;52.230;5.194;2023-01-08T15:32:06;13.45;;;3.55;;
53646;SDS011;39550;52.230;5.194;2023-01-08T15:34:43;10.13;;;4.18;;
53646;SDS011;39550;52.230;5.194;2023-01-08T15:37:10;11.50;;;3.85;;
53646;SDS011;39550;52.230;5.194;2023-01-08T15:39:36;9.57;;;4.10;;
53646;SDS011;39550;52.230;5.194;2023-01-08T15:45:15;7.97;;;3.60;;
53646;SDS011;39550;52.230;5.194;2023-01-08T15:47:45;5.68;;;3.45;;
53646;SDS011;39550;52.230;5.194;2023-01-08T15:50:10;8.73;;;4.75;;
53646;SDS011;39550;52.230;5.194;2023-01-08T15:52:36;12.45;;;3.20;;
53646;SDS011;39550;52.230;5.194;2023-01-08T15:55:04;7.70;;;3.42;;
53646;SDS011;39550;52.230;5.194;2023-01-08T15:57:30;10.25;;;3.45;;
53646;SDS011;39550;52.230;5.194;2023-01-08T15:59:55;11.13;;;4.18;;
53646;SDS011;39550;52.230;5.194;2023-01-08T16:02:21;11.55;;;3.75;;
53646;SDS011;39550;52.230;5.194;2023-01-08T16:04:51;9.82;;;3.70;;
53646;SDS011;39550;52.230;5.194;2023-01-08T16:09:42;15.82;;;3.90;;
53646;SDS011;39550;52.230;5.194;2023-01-08T16:12:07;9.82;;;3.80;;
53646;SDS011;39550;52.230;5.194;2023-01-08T16:14:33;9.05;;;3.75;;
53646;SDS011;39550;52.230;5.194;2023-01-08T16:17:02;7.20;;;3.50;;
53646;SDS011;39550;52.230;5.194;2023-01-08T16:19:28;9.93;;;4.13;;
53646;SDS011;39550;52.230;5.194;2023-01-08T16:21:55;10.40;;;4.22;;
53646;SDS011;39550;52.230;5.194;2023-01-08T16:24:20;7.40;;;3.65;;
53646;SDS011;39550;52.230;5.194;2023-01-08T16:26:46;12.07;;;3.80;;
53646;SDS011;39550;52.230;5.194;2023-01-08T16:29:11;9.07;;;4.25;;
53646;SDS011;39550;52.230;5.194;2023-01-08T16:31:36;10.27;;;4.10;;
53646;SDS011;39550;52.230;5.194;2023-01-08T16:34:02;9.65;;;4.15;;
53646;SDS011;39550;52.230;5.194;2023-01-08T16:36:28;7.20;;;4.00;;
53646;SDS011;39550;52.230;5.194;2023-01-08T16:38:53;8.23;;;4.15;;
53646;SDS011;39550;52.230;5.194;2023-01-08T16:41:19;8.50;;;3.67;;
53646;SDS011;39550;52.230;5.194;2023-01-08T16:43:44;10.88;;;3.75;;
53646;SDS011;39550;52.230;5.194;2023-01-08T16:46:10;9.68;;;4.70;;
53646;SDS011;39550;52.230;5.194;2023-01-08T16:48:42;8.93;;;4.00;;
53646;SDS011;39550;52.230;5.194;2023-01-08T16:51:07;8.95;;;4.07;;
53646;SDS011;39550;52.230;5.194;2023-01-08T16:53:33;7.60;;;3.45;;
53646;SDS011;39550;52.230;5.194;2023-01-08T16:56:00;10.18;;;4.25;;
53646;SDS011;39550;52.230;5.194;2023-01-08T16:58:26;7.05;;;3.70;;
53646;SDS011;39550;52.230;5.194;2023-01-08T17:00:51;8.63;;;4.25;;
53646;SDS011;39550;52.230;5.194;2023-01-08T17:03:16;9.07;;;4.13;;
53646;SDS011;39550;52.230;5.194;2023-01-08T17:05:42;6.75;;;4.32;;
53646;SDS011;39550;52.230;5.194;2023-01-08T17:10:41;7.65;;;3.88;;
53646;SDS011;39550;52.230;5.194;2023-01-08T17:13:07;6.93;;;3.70;;
53646;SDS011;39550;52.230;5.194;2023-01-08T17:15:33;7.93;;;3.80;;
53646;SDS011;39550;52.230;5.194;2023-01-08T17:18:00;10.95;;;3.80;;
53646;SDS011;39550;52.230;5.194;2023-01-08T17:20:26;7.65;;;3.70;;
53646;SDS011;39550;52.230;5.194;2023-01-08T17:22:51;7.03;;;3.60;;
53646;SDS011;39550;52.230;5.194;2023-01-08T17:25:16;6.10;;;3.63;;